createdAt,value
2023-05-10T00:02:04.572Z,146286.84
2023-05-10T00:04:31.560Z,146295.31
2023-05-10T00:06:58.543Z,146264.91
2023-05-10T00:09:25.663Z,146294.13
2023-05-10T00:11:52.661Z,146284.38
2023-05-10T00:14:20.057Z,146317.25
2023-05-10T00:16:47.222Z,146314.84
2023-05-10T00:19:14.312Z,146305.09
2023-05-10T00:21:41.635Z,146300.25
2023-05-10T00:24:08.638Z,146283.19
2023-05-10T00:26:35.749Z,146297.78
2023-05-10T00:29:03.013Z,146292.91
2023-05-10T00:31:30.096Z,146278.31
2023-05-10T00:33:58.240Z,146312.38
2023-05-10T00:36:25.360Z,146283.19
2023-05-10T00:38:52.482Z,146272.19
2023-05-10T00:41:19.716Z,146297.78
2023-05-10T00:43:47.580Z,146284.38
2023-05-10T00:46:16.292Z,146288.03
2023-05-10T00:48:44.696Z,146263.72
2023-05-10T00:51:11.867Z,146275.84
2023-05-10T00:53:38.990Z,146283.19
2023-05-10T00:56:06.432Z,146302.66
2023-05-10T00:58:34.063Z,146288.03
2023-05-10T01:01:02.174Z,146305.09
2023-05-10T01:03:29.901Z,146297.78
2023-05-10T01:05:57.080Z,146283.19
2023-05-10T01:08:26.645Z,146284.38
2023-05-10T01:10:53.859Z,146213.81
2023-05-10T01:13:43.499Z,146295.31
2023-05-10T01:16:10.541Z,146295.31
2023-05-10T01:18:41.944Z,146278.31
2023-05-10T01:21:33.122Z,146279.53
2023-05-10T01:24:22.856Z,146279.53
2023-05-10T01:27:11.047Z,146275.84
2023-05-10T01:30:13.558Z,146288.03
2023-05-10T01:32:45.235Z,146292.91
2023-05-10T01:35:23.100Z,146269.78
2023-05-10T01:38:05.524Z,146285.59
2023-05-10T01:41:03.324Z,146302.66
2023-05-10T01:43:37.980Z,146297.78
2023-05-10T01:46:11.842Z,146273.44
2023-05-10T01:48:48.037Z,146274.66
2023-05-10T01:51:22.777Z,146261.25
2023-05-10T01:53:51.109Z,146268.59
2023-05-10T01:56:24.134Z,146292.91
2023-05-10T01:58:52.796Z,146229.63
2023-05-10T02:01:22.473Z,146261.25
2023-05-10T02:03:52.724Z,146291.72
2023-05-10T02:06:22.946Z,146264.91
2023-05-10T02:08:52.431Z,146274.66
2023-05-10T02:11:22.374Z,146251.53
2023-05-10T02:13:51.349Z,146234.47
2023-05-10T02:16:22.758Z,146249.06
2023-05-10T02:18:51.171Z,146190.69
2023-05-10T02:21:21.268Z,146227.22
2023-05-10T02:23:51.196Z,146229.63
2023-05-10T02:26:20.158Z,146252.75
2023-05-10T02:28:48.256Z,146221.09
2023-05-10T02:31:15.875Z,146228.41
2023-05-10T02:33:44.798Z,146224.75
2023-05-10T02:36:13.472Z,146239.34
2023-05-10T02:38:41.425Z,146156.59
2023-05-10T02:41:10.629Z,146207.69
2023-05-10T02:43:40.365Z,146162.66
2023-05-10T02:46:07.592Z,146171.19
2023-05-10T02:48:36.349Z,146190.69
2023-05-10T02:51:08.035Z,146196.75
2023-05-10T02:53:37.538Z,146206.50
2023-05-10T02:56:15.043Z,146216.22
2023-05-10T02:58:42.021Z,146222.28
2023-05-10T03:01:09.684Z,146225.97
2023-05-10T03:03:36.721Z,146207.69
2023-05-10T03:06:04.392Z,146211.34
2023-05-10T03:08:32.065Z,146205.28
2023-05-10T03:11:29.896Z,146224.75
2023-05-10T03:14:23.346Z,146161.47
2023-05-10T03:17:01.304Z,146215.03
2023-05-10T03:19:33.233Z,146239.34
2023-05-10T03:22:04.693Z,146166.31
2023-05-10T03:24:36.357Z,146243.00
2023-05-10T03:27:05.360Z,146244.22
2023-05-10T03:29:33.086Z,146200.44
2023-05-10T03:32:01.100Z,146229.63
2023-05-10T03:34:32.311Z,146159.06
2023-05-10T03:36:59.444Z,146216.22
2023-05-10T03:39:29.009Z,146233.28
2023-05-10T03:41:59.220Z,146223.53
2023-05-10T03:44:26.232Z,146222.28
2023-05-10T03:46:53.341Z,146225.97
2023-05-10T03:49:20.329Z,146201.63
2023-05-10T03:51:47.656Z,146216.22
2023-05-10T03:54:14.689Z,146218.69
2023-05-10T03:56:41.935Z,146219.88
2023-05-10T03:59:09.746Z,146206.50
2023-05-10T04:01:36.817Z,146229.63
2023-05-10T04:04:04.058Z,146234.47
2023-05-10T04:06:32.866Z,146250.34
2023-05-10T04:09:01.382Z,146219.88
2023-05-10T04:11:28.858Z,146200.44
2023-05-10T04:13:55.923Z,146221.09
2023-05-10T04:16:23.109Z,146178.50
2023-05-10T04:18:50.120Z,146253.94
2023-05-10T04:21:17.189Z,146251.53
2023-05-10T04:23:44.377Z,146256.41
2023-05-10T04:26:11.473Z,146245.47
2023-05-10T04:28:38.850Z,146250.34
2023-05-10T04:31:07.544Z,146239.34
2023-05-10T04:33:35.321Z,146257.59
2023-05-10T04:36:02.730Z,146217.44
2023-05-10T04:38:30.090Z,146217.44
2023-05-10T04:41:08.044Z,146266.13
2023-05-10T04:43:37.241Z,146174.84
2023-05-10T04:46:05.381Z,146253.94
2023-05-10T04:48:32.477Z,146229.63
2023-05-10T04:50:59.504Z,146207.69
2023-05-10T04:53:26.694Z,146243.00
2023-05-10T04:55:53.695Z,146232.06
2023-05-10T04:58:20.676Z,146268.59
2023-05-10T05:00:47.688Z,146263.72
2023-05-10T05:03:14.819Z,146243.00
2023-05-10T05:05:41.880Z,146256.41
2023-05-10T05:08:08.886Z,146260.06
2023-05-10T05:10:35.873Z,146269.78
2023-05-10T05:13:02.965Z,146305.09
2023-05-10T05:15:31.463Z,146288.03
2023-05-10T05:17:58.562Z,146297.78
2023-05-10T05:20:25.639Z,146328.22
2023-05-10T05:22:52.712Z,146285.59
2023-05-10T05:25:19.691Z,146358.63
2023-05-10T05:27:46.658Z,146408.56
2023-05-10T05:30:13.752Z,146411.06
2023-05-10T05:32:40.773Z,146439.06
2023-05-10T05:35:08.219Z,146454.88
2023-05-10T05:37:36.196Z,146456.13
2023-05-10T05:40:03.540Z,146443.94
2023-05-10T05:42:32.326Z,146419.59
2023-05-10T05:44:59.460Z,146429.34
2023-05-10T05:47:26.569Z,146400.03
2023-05-10T05:49:53.546Z,146392.75
2023-05-10T05:52:20.586Z,146390.31
2023-05-10T05:54:47.639Z,146422.00
2023-05-10T05:57:14.631Z,146465.88
2023-05-10T05:59:44.713Z,146440.28
2023-05-10T06:02:11.799Z,146441.47
2023-05-10T06:04:39.256Z,146398.81
2023-05-10T06:07:08.888Z,146470.75
2023-05-10T06:09:35.898Z,146490.22
2023-05-10T06:12:02.899Z,146512.16
2023-05-10T06:14:29.873Z,146519.47
2023-05-10T06:16:57.023Z,146543.81
2023-05-10T06:19:24.176Z,146534.09
2023-05-10T06:21:53.219Z,146553.56
2023-05-10T06:24:20.888Z,146536.50
2023-05-10T06:26:47.979Z,146573.03
2023-05-10T06:29:16.178Z,146569.38
2023-05-10T06:31:43.223Z,146643.72
2023-05-10T06:34:10.657Z,146619.34
2023-05-10T06:36:37.633Z,146659.56
2023-05-10T06:39:04.767Z,146691.22
2023-05-10T06:41:31.726Z,146665.66
2023-05-10T06:43:58.751Z,146741.25
2023-05-10T06:46:25.906Z,146785.16
2023-05-10T06:48:53.132Z,146753.47
2023-05-10T06:51:22.056Z,146765.63
2023-05-10T06:53:49.085Z,146769.28
2023-05-10T06:56:16.104Z,146836.34
2023-05-10T06:58:43.140Z,146804.66
2023-05-10T07:01:10.207Z,146886.34
2023-05-10T07:03:37.260Z,146836.34
2023-05-10T07:06:04.865Z,146820.47
2023-05-10T07:08:32.587Z,146807.06
2023-05-10T07:11:11.108Z,146875.34
2023-05-10T07:13:40.004Z,146893.63
2023-05-10T07:16:07.551Z,146881.47
2023-05-10T07:18:34.953Z,146831.47
2023-05-10T07:21:02.610Z,146755.88
2023-05-10T07:23:30.456Z,146743.72
2023-05-10T07:25:58.396Z,146751.00
2023-05-10T07:28:25.438Z,146748.59
2023-05-10T07:30:52.581Z,146758.34
2023-05-10T07:33:19.658Z,146790.03
2023-05-10T07:35:46.747Z,146808.31
2023-05-10T07:38:13.735Z,146816.84
2023-05-10T07:40:40.955Z,146825.34
2023-05-10T07:43:07.958Z,146779.03
2023-05-10T07:45:35.421Z,146785.16
2023-05-10T07:48:02.618Z,146755.88
2023-05-10T07:50:29.775Z,146682.69
2023-05-10T07:52:56.800Z,146602.31
2023-05-10T07:55:23.868Z,146568.16
2023-05-10T07:57:50.941Z,146573.03
2023-05-10T08:00:20.258Z,146626.66
2023-05-10T08:02:48.283Z,146659.56
2023-05-10T08:05:15.717Z,146704.66
2023-05-10T08:07:43.396Z,146669.28
2023-05-10T08:10:12.083Z,146854.63
2023-05-10T08:12:39.677Z,146871.72
2023-05-10T08:15:07.959Z,146814.41
2023-05-10T08:17:35.410Z,146758.34
2023-05-10T08:20:02.494Z,146765.63
2023-05-10T08:22:29.523Z,146775.41
2023-05-10T08:24:56.511Z,146733.94
2023-05-10T08:27:23.618Z,146693.69
2023-05-10T08:29:50.808Z,146677.81
2023-05-10T08:32:18.502Z,146681.50
2023-05-10T08:34:45.493Z,146699.78
2023-05-10T08:37:14.509Z,146775.41
2023-05-10T08:39:41.914Z,146730.31
2023-05-10T08:42:10.224Z,146755.88
2023-05-10T08:44:37.797Z,146735.19
2023-05-10T08:47:08.401Z,146816.84
2023-05-10T08:49:36.081Z,146858.31
2023-05-10T08:52:05.217Z,146833.88
2023-05-10T08:54:33.925Z,146954.63
2023-05-10T08:57:01.556Z,146914.38
2023-05-10T08:59:29.288Z,146844.88
2023-05-10T09:01:59.372Z,146848.56
2023-05-10T09:04:26.963Z,146853.44
2023-05-10T09:06:55.609Z,146807.06
2023-05-10T09:09:22.701Z,146794.91
2023-05-10T09:11:49.983Z,146760.75
2023-05-10T09:14:18.249Z,146754.66
2023-05-10T09:16:45.717Z,146741.25
2023-05-10T09:19:12.827Z,146790.03
2023-05-10T09:21:39.949Z,146796.09
2023-05-10T09:24:08.666Z,146809.53
2023-05-10T09:26:36.950Z,146715.63
2023-05-10T09:29:04.512Z,146821.72
2023-05-10T09:31:57.221Z,146790.03
2023-05-10T09:34:32.750Z,146735.19
2023-05-10T09:37:02.386Z,146733.94
2023-05-10T09:39:37.230Z,146797.31
2023-05-10T09:42:06.756Z,146833.88
2023-05-10T09:44:34.681Z,146816.84
2023-05-10T09:47:03.081Z,146826.59
2023-05-10T09:49:30.479Z,146909.50
2023-05-10T09:52:02.622Z,146899.75
2023-05-10T09:54:29.613Z,146913.16
2023-05-10T09:56:56.962Z,146926.59
2023-05-10T09:59:27.761Z,146927.78
2023-05-10T10:02:00.301Z,147016.84
2023-05-10T10:04:27.790Z,147015.66
2023-05-10T10:07:05.842Z,147015.66
2023-05-10T10:09:34.346Z,147021.72
2023-05-10T10:12:05.589Z,147068.06
2023-05-10T10:14:32.638Z,147092.50
2023-05-10T10:19:34.011Z,147091.28
2023-05-10T10:22:01.290Z,147001.00
2023-05-10T10:24:28.293Z,146929.00
2023-05-10T10:27:00.644Z,146890.00
2023-05-10T10:29:46.925Z,146942.41
2023-05-10T10:32:36.778Z,146892.41
2023-05-10T10:35:05.004Z,146903.41
2023-05-10T10:37:46.176Z,146896.09
2023-05-10T10:40:34.653Z,146887.53
2023-05-10T10:43:25.305Z,146931.47
2023-05-10T10:46:16.272Z,146977.78
2023-05-10T10:48:52.464Z,147076.63
2023-05-10T10:51:19.473Z,147112.00
2023-05-10T10:53:48.974Z,147226.72
2023-05-10T10:56:16.455Z,147317.09
2023-05-10T10:58:52.259Z,147311.00
2023-05-10T11:01:19.942Z,147321.97
2023-05-10T11:04:02.071Z,147397.66
2023-05-10T11:06:33.428Z,147422.09
2023-05-10T11:09:11.031Z,147290.22
2023-05-10T11:11:52.022Z,147068.06
2023-05-10T11:14:22.489Z,147163.25
2023-05-10T11:16:49.746Z,147104.66
2023-05-10T11:19:18.084Z,147074.22
2023-05-10T11:22:12.006Z,147083.97
2023-05-10T11:24:39.032Z,147168.13
2023-05-10T11:27:06.661Z,147159.56
2023-05-10T11:29:33.662Z,147238.94
2023-05-10T11:32:01.002Z,147247.53
2023-05-10T11:34:35.504Z,147143.75
2023-05-10T11:37:02.511Z,146942.41
2023-05-10T11:39:30.992Z,146824.13
2023-05-10T11:41:59.200Z,146702.22
2023-05-10T11:44:32.953Z,146652.28
2023-05-10T11:47:03.292Z,146581.56
2023-05-10T11:49:30.874Z,146564.50
2023-05-10T11:52:08.625Z,146594.97
2023-05-10T11:54:38.490Z,146558.44
2023-05-10T11:57:05.734Z,146594.97
2023-05-10T11:59:32.897Z,146612.03
2023-05-10T12:02:00.459Z,146620.59
2023-05-10T12:04:30.213Z,146637.59
2023-05-10T12:06:57.442Z,146651.00
2023-05-10T12:11:57.854Z,146669.28
2023-05-10T12:14:25.373Z,146719.31
2023-05-10T12:16:52.664Z,146726.63
2023-05-10T12:19:22.044Z,146779.03
2023-05-10T12:21:49.551Z,146768.06
2023-05-10T12:24:20.097Z,146816.84
2023-05-10T12:26:47.295Z,146888.75
2023-05-10T12:29:16.519Z,146909.50
2023-05-10T12:31:57.307Z,146927.78
2023-05-10T12:34:47.459Z,147016.84
2023-05-10T12:37:14.868Z,147009.56
2023-05-10T12:39:43.646Z,146929.00
2023-05-10T12:42:11.351Z,147030.28
2023-05-10T12:44:39.293Z,147042.47
2023-05-10T12:47:06.855Z,147021.72
2023-05-10T12:49:34.795Z,147091.28
2023-05-10T12:52:02.085Z,147038.81
2023-05-10T12:54:29.136Z,147043.69
2023-05-10T12:56:56.181Z,147080.28
2023-05-10T12:59:23.788Z,147099.78
2023-05-10T13:01:51.028Z,147046.16
2023-05-10T13:04:18.174Z,147093.72
2023-05-10T13:06:45.347Z,147069.31
2023-05-10T13:09:12.368Z,147057.13
2023-05-10T13:11:39.469Z,147038.81
2023-05-10T13:14:06.541Z,147038.81
2023-05-10T13:16:33.831Z,147055.91
2023-05-10T13:19:01.207Z,147043.69
2023-05-10T13:21:28.811Z,147027.84
2023-05-10T13:23:56.426Z,147031.47
2023-05-10T13:26:23.525Z,147021.72
2023-05-10T13:28:52.397Z,147025.41
2023-05-10T13:31:19.503Z,147058.31
2023-05-10T13:33:46.565Z,147073.00
2023-05-10T13:36:13.555Z,147153.50
2023-05-10T13:38:40.558Z,147221.84
2023-05-10T13:41:07.769Z,147324.41
2023-05-10T13:43:34.855Z,147257.28
2023-05-10T13:46:02.628Z,147331.72
2023-05-10T13:48:29.638Z,147292.69
2023-05-10T13:50:57.048Z,147268.25
2023-05-10T13:53:24.097Z,147171.78
2023-05-10T13:55:51.314Z,147010.78
2023-05-10T13:58:18.312Z,147016.84
2023-05-10T14:00:45.313Z,147032.72
2023-05-10T14:03:12.718Z,147033.94
2023-05-10T14:05:39.892Z,147044.91
2023-05-10T14:08:06.897Z,147088.84
2023-05-10T14:10:33.932Z,147119.34
2023-05-10T14:13:01.150Z,147092.50
2023-05-10T14:15:28.216Z,147116.88
2023-05-10T14:17:55.243Z,147165.72
2023-05-10T14:20:22.425Z,147126.66
2023-05-10T14:22:49.407Z,147234.06
2023-05-10T14:25:16.563Z,147282.88
2023-05-10T14:27:43.926Z,147334.19
2023-05-10T14:30:11.555Z,147285.34
2023-05-10T14:32:38.814Z,147164.50
2023-05-10T14:35:07.007Z,147203.53
2023-05-10T14:37:34.249Z,147168.13
2023-05-10T14:40:01.370Z,147218.16
2023-05-10T14:42:29.344Z,147179.13
2023-05-10T14:44:56.374Z,147163.25
2023-05-10T14:47:23.417Z,147234.06
2023-05-10T14:49:50.488Z,147314.63
2023-05-10T14:52:18.229Z,147237.72
2023-05-10T14:54:45.226Z,147231.59
2023-05-10T14:57:12.301Z,147295.13
2023-05-10T14:59:39.540Z,147143.75
2023-05-10T15:02:09.090Z,147237.72
2023-05-10T15:04:36.754Z,147213.28
2023-05-10T15:07:04.348Z,147236.47
2023-05-10T15:09:31.984Z,147341.50
2023-05-10T15:11:59.096Z,147380.59
2023-05-10T15:14:26.171Z,147518.63
2023-05-10T15:16:53.298Z,147596.78
2023-05-10T15:19:21.027Z,147644.41
2023-05-10T15:21:48.282Z,147642.00
2023-05-10T15:24:15.514Z,147699.41
2023-05-10T15:26:42.627Z,147584.56
2023-05-10T15:29:09.612Z,147458.72
2023-05-10T15:31:36.908Z,147422.09
2023-05-10T15:34:04.047Z,147253.63
2023-05-10T15:36:32.730Z,147173.00
2023-05-10T15:38:59.703Z,147142.53
2023-05-10T15:41:26.692Z,147091.28
2023-05-10T15:43:54.604Z,147060.78
2023-05-10T15:46:21.730Z,147037.59
2023-05-10T15:48:48.776Z,146958.28
2023-05-10T15:51:15.907Z,146958.28
2023-05-10T15:53:56.531Z,146871.72
2023-05-10T15:56:30.028Z,146875.34
2023-05-10T15:58:57.207Z,146875.34
2023-05-10T16:01:24.325Z,146843.63
2023-05-10T16:03:51.373Z,146847.31
2023-05-10T16:06:18.357Z,146838.75
2023-05-10T16:08:45.353Z,146814.41
2023-05-10T16:11:12.419Z,146746.13
2023-05-10T16:13:39.399Z,146768.06
2023-05-10T16:16:08.793Z,146731.50
2023-05-10T16:18:36.088Z,146746.13
2023-05-10T16:21:03.465Z,146724.19
2023-05-10T16:23:30.639Z,146698.56
2023-05-10T16:25:57.673Z,146655.88
2023-05-10T16:28:24.782Z,146665.66
2023-05-10T16:30:51.906Z,146636.41
2023-05-10T16:33:18.914Z,146626.66
2023-05-10T16:35:46.296Z,146609.59
2023-05-10T16:38:13.316Z,146620.59
2023-05-10T16:40:40.324Z,146603.50
2023-05-10T16:43:07.703Z,146580.38
2023-05-10T16:45:34.866Z,146541.38
2023-05-10T16:48:01.944Z,146563.31
2023-05-10T16:50:29.241Z,146597.44
2023-05-10T16:52:56.316Z,146605.94
2023-05-10T16:55:26.208Z,146577.91
2023-05-10T16:57:59.495Z,146663.22
2023-05-10T17:00:27.270Z,146677.81
2023-05-10T17:02:54.772Z,146677.81
2023-05-10T17:05:22.542Z,146680.28
2023-05-10T17:07:50.531Z,146763.19
2023-05-10T17:10:17.728Z,146814.41
2023-05-10T17:12:45.609Z,146880.22
2023-05-10T17:15:12.967Z,146849.75
2023-05-10T17:17:40.155Z,146887.53
2023-05-10T17:20:08.294Z,146904.63
2023-05-10T17:22:35.437Z,146836.34
2023-05-10T17:25:02.668Z,146787.56
2023-05-10T17:27:30.175Z,146729.06
2023-05-10T17:29:57.842Z,146783.91
2023-05-10T17:32:25.687Z,146762.00
2023-05-10T17:34:52.744Z,146721.75
2023-05-10T17:37:19.812Z,146719.31
2023-05-10T17:39:46.859Z,146760.75
2023-05-10T17:42:16.196Z,146683.94
2023-05-10T17:44:43.850Z,146713.22
2023-05-10T17:47:10.898Z,146697.31
2023-05-10T17:49:37.969Z,146738.84
2023-05-10T17:52:05.050Z,146741.25
2023-05-10T17:54:32.088Z,146703.44
2023-05-10T17:57:00.795Z,146674.16
2023-05-10T17:59:27.814Z,146686.38
2023-05-10T18:01:54.787Z,146696.09
2023-05-10T18:04:21.847Z,146619.34
2023-05-10T18:06:49.319Z,146665.66
2023-05-10T18:09:17.805Z,146575.50
2023-05-10T18:11:44.762Z,146636.41
2023-05-10T18:14:12.196Z,146619.34
2023-05-10T18:16:39.266Z,146624.19
2023-05-10T18:19:06.462Z,146597.44
2023-05-10T18:21:33.512Z,146614.47
2023-05-10T18:24:00.520Z,146612.03
2023-05-10T18:26:27.705Z,146616.91
2023-05-10T18:28:54.746Z,146598.66
2023-05-10T18:31:22.011Z,146575.50
2023-05-10T18:33:49.112Z,146565.75
2023-05-10T18:36:16.762Z,146568.16
2023-05-10T18:38:44.139Z,146515.81
2023-05-10T18:41:12.345Z,146560.88
2023-05-10T18:43:39.329Z,146577.91
2023-05-10T18:46:06.593Z,146552.34
2023-05-10T18:48:33.604Z,146502.41
2023-05-10T18:51:00.738Z,146512.16
2023-05-10T18:53:27.888Z,146524.34
2023-05-10T18:55:57.698Z,146480.47
2023-05-10T18:58:27.438Z,146482.94
2023-05-10T19:00:54.852Z,146490.22
2023-05-10T19:03:22.485Z,146486.56
2023-05-10T19:05:49.488Z,146502.41
2023-05-10T19:08:17.095Z,146473.16
2023-05-10T19:10:44.244Z,146419.59
2023-05-10T19:13:11.477Z,146392.75
2023-05-10T19:15:38.533Z,146412.28
2023-05-10T19:18:07.997Z,146441.47
2023-05-10T19:20:36.588Z,146431.75
2023-05-10T19:25:35.989Z,146387.88
2023-05-10T19:28:02.959Z,146356.22
2023-05-10T19:30:31.826Z,146417.13
2023-05-10T19:32:58.908Z,146409.88
2023-05-10T19:35:26.036Z,146379.34
2023-05-10T19:37:53.498Z,146396.41
2023-05-10T19:40:20.560Z,146348.91
2023-05-10T19:42:48.635Z,146336.75
2023-05-10T19:45:16.408Z,146361.09
2023-05-10T19:47:43.953Z,146323.38
2023-05-10T19:50:12.319Z,146364.75
2023-05-10T19:52:39.541Z,146291.72
2023-05-10T19:55:07.145Z,146262.47
2023-05-10T19:57:34.408Z,146295.31
2023-05-10T20:00:01.539Z,146227.22
2023-05-10T20:02:28.544Z,146271.00
2023-05-10T20:04:55.609Z,146187.03
2023-05-10T20:07:22.594Z,146234.47
2023-05-10T20:09:49.584Z,146208.94
2023-05-10T20:12:16.610Z,146241.81
2023-05-10T20:14:43.628Z,146227.22
2023-05-10T20:17:10.711Z,146240.56
2023-05-10T20:19:37.719Z,146239.34
2023-05-10T20:22:05.394Z,146236.94
2023-05-10T20:24:32.419Z,146234.47
2023-05-10T20:27:00.407Z,146228.41
2023-05-10T20:29:27.416Z,146236.94
2023-05-10T20:31:54.429Z,146184.56
2023-05-10T20:34:21.833Z,146234.47
2023-05-10T20:36:48.885Z,146229.63
2023-05-10T20:39:16.013Z,146241.81
2023-05-10T20:41:43.682Z,146235.69
2023-05-10T20:44:10.768Z,146236.94
2023-05-10T20:46:37.926Z,146246.66
2023-05-10T20:49:05.554Z,146246.66
2023-05-10T20:51:33.269Z,146250.34
2023-05-10T20:54:02.468Z,146243.00
2023-05-10T20:56:29.645Z,146173.66
2023-05-10T20:58:56.758Z,146208.94
2023-05-10T21:01:23.824Z,146213.81
2023-05-10T21:03:50.838Z,146217.44
2023-05-10T21:06:17.872Z,146219.88
2023-05-10T21:08:44.852Z,146201.63
2023-05-10T21:11:11.905Z,146196.75
2023-05-10T21:13:38.955Z,146178.50
2023-05-10T21:16:06.133Z,146157.81
2023-05-10T21:18:33.179Z,146161.47
2023-05-10T21:21:00.334Z,146154.19
2023-05-10T21:23:27.438Z,146149.28
2023-05-10T21:25:55.800Z,146149.28
2023-05-10T21:28:23.179Z,146118.88
2023-05-10T21:30:51.049Z,146139.56
2023-05-10T21:33:18.014Z,146128.63
2023-05-10T21:35:45.253Z,146121.28
2023-05-10T21:38:12.452Z,146098.19
2023-05-10T21:40:40.305Z,146112.78
2023-05-10T21:43:08.175Z,146064.09
2023-05-10T21:45:36.341Z,146075.03
2023-05-10T21:48:03.648Z,146056.78
2023-05-10T21:50:30.746Z,146054.38
2023-05-10T21:52:57.801Z,146037.31
2023-05-10T21:55:24.935Z,146028.81
2023-05-10T21:57:52.017Z,145998.38
2023-05-10T22:00:19.717Z,146039.75
2023-05-10T22:02:47.355Z,146061.63
2023-05-10T22:05:14.551Z,146061.63
2023-05-10T22:07:41.623Z,146070.16
2023-05-10T22:10:09.518Z,146011.78
2023-05-10T22:12:36.590Z,146082.38
2023-05-10T22:15:09.927Z,146090.91
2023-05-10T22:17:40.560Z,146088.47
2023-05-10T22:20:08.828Z,146114.03
2023-05-10T22:22:36.644Z,146066.50
2023-05-10T22:25:05.781Z,146100.63
2023-05-10T22:27:32.852Z,146105.50
2023-05-10T22:29:59.824Z,146100.63
2023-05-10T22:32:26.908Z,146117.69
2023-05-10T22:34:53.898Z,146115.22
2023-05-10T22:37:20.900Z,146095.78
2023-05-10T22:39:48.666Z,146100.63
2023-05-10T22:42:16.163Z,146090.91
2023-05-10T22:44:43.595Z,146121.28
2023-05-10T22:47:10.659Z,146112.78
2023-05-10T22:49:37.919Z,146037.31
2023-05-10T22:52:04.933Z,146098.19
2023-05-10T22:54:33.191Z,146100.63
2023-05-10T22:57:01.895Z,146086.06
2023-05-10T22:59:28.886Z,146084.81
2023-05-10T23:01:55.979Z,146094.53
2023-05-10T23:04:23.236Z,146062.91
2023-05-10T23:06:50.264Z,146068.97
2023-05-10T23:09:17.335Z,146078.72
2023-05-10T23:11:44.312Z,146071.38
2023-05-10T23:14:11.770Z,146049.50
2023-05-10T23:16:39.002Z,146044.66
2023-05-10T23:19:07.112Z,146076.28
2023-05-10T23:21:34.417Z,146022.75
2023-05-10T23:24:01.484Z,146076.28
2023-05-10T23:26:28.484Z,146112.78
2023-05-10T23:28:55.505Z,146110.38
2023-05-10T23:31:22.540Z,146106.72
2023-05-10T23:33:49.571Z,146122.56
2023-05-10T23:36:16.719Z,146101.84
2023-05-10T23:38:43.701Z,146098.19
2023-05-10T23:41:10.859Z,146133.47
2023-05-10T23:43:37.830Z,146110.38
2023-05-10T23:46:06.388Z,146126.16
2023-05-10T23:48:33.448Z,146096.97
2023-05-10T23:51:00.537Z,146120.09
2023-05-10T23:53:28.301Z,146127.41
2023-05-10T23:55:55.361Z,146124.97
2023-05-10T23:58:22.353Z,146121.28
